sensor_id;sensor_type;location;lat;lon;timestamp;pressure;altitude;pressure_sealevel;temperature;humidity
61010;BME280;46897;55.340;86.082;2023-03-18T00:01:40;100901.22;;;-5.71;71.56
61010;BME280;46897;55.340;86.082;2023-03-18T00:04:10;100871.91;;;-5.73;71.83
61010;BME280;46897;55.340;86.082;2023-03-18T00:06:39;100867.50;;;-5.76;71.91
61010;BME280;46897;55.340;86.082;2023-03-18T00:09:10;100747.56;;;-6.46;71.61
61010;BME280;46897;55.340;86.082;2023-03-18T00:11:41;100861.34;;;-5.81;71.70
61010;BME280;46897;55.340;86.082;2023-03-18T00:14:12;100857.84;;;-5.83;71.54
61010;BME280;46897;55.340;86.082;2023-03-18T00:16:41;100775.75;;;-6.50;71.23
61010;BME280;46897;55.340;86.082;2023-03-18T00:19:11;100839.34;;;-5.98;71.74
61010;BME280;46897;55.340;86.082;2023-03-18T00:21:40;100850.44;;;-5.99;71.61
61010;BME280;46897;55.340;86.082;2023-03-18T00:24:10;100778.53;;;-6.44;71.89
61010;BME280;46897;55.340;86.082;2023-03-18T00:26:39;100811.81;;;-6.25;71.34
61010;BME280;46897;55.340;86.082;2023-03-18T00:29:10;100872.28;;;-5.88;71.67
61010;BME280;46897;55.340;86.082;2023-03-18T00:31:39;100760.84;;;-6.59;71.55
61010;BME280;46897;55.340;86.082;2023-03-18T00:34:08;100881.72;;;-5.88;71.62
61010;BME280;46897;55.340;86.082;2023-03-18T00:36:38;100790.75;;;-6.63;71.58
61010;BME280;46897;55.340;86.082;2023-03-18T00:39:08;100885.16;;;-5.88;72.18
61010;BME280;46897;55.340;86.082;2023-03-18T00:41:37;100783.97;;;-6.61;71.87
61010;BME280;46897;55.340;86.082;2023-03-18T00:44:07;100732.06;;;-6.73;71.98
61010;BME280;46897;55.340;86.082;2023-03-18T00:46:38;100703.28;;;-7.11;71.27
61010;BME280;46897;55.340;86.082;2023-03-18T00:49:07;100874.84;;;-5.88;71.95
61010;BME280;46897;55.340;86.082;2023-03-18T00:51:38;100878.38;;;-5.86;72.06
61010;BME280;46897;55.340;86.082;2023-03-18T00:54:10;100843.97;;;-6.14;71.67
61010;BME280;46897;55.340;86.082;2023-03-18T00:56:40;100756.78;;;-6.53;71.67
61010;BME280;46897;55.340;86.082;2023-03-18T00:59:09;100743.06;;;-6.52;71.32
61010;BME280;46897;55.340;86.082;2023-03-18T01:01:40;100825.56;;;-5.99;72.01
61010;BME280;46897;55.340;86.082;2023-03-18T01:04:09;100683.13;;;-6.99;71.48
61010;BME280;46897;55.340;86.082;2023-03-18T01:06:39;100798.06;;;-6.25;71.56
61010;BME280;46897;55.340;86.082;2023-03-18T01:09:08;100778.78;;;-6.37;71.54
61010;BME280;46897;55.340;86.082;2023-03-18T01:11:38;100777.03;;;-6.12;71.48
61010;BME280;46897;55.340;86.082;2023-03-18T01:14:07;100753.41;;;-6.24;71.61
61010;BME280;46897;55.340;86.082;2023-03-18T01:16:37;100744.69;;;-6.29;71.72
61010;BME280;46897;55.340;86.082;2023-03-18T01:19:07;100768.38;;;-6.13;71.46
61010;BME280;46897;55.340;86.082;2023-03-18T01:21:37;100723.47;;;-6.21;71.82
61010;BME280;46897;55.340;86.082;2023-03-18T01:24:06;100738.44;;;-6.09;71.44
61010;BME280;46897;55.340;86.082;2023-03-18T01:26:36;100746.41;;;-6.01;71.41
61010;BME280;46897;55.340;86.082;2023-03-18T01:29:06;100804.41;;;-5.60;71.45
61010;BME280;46897;55.340;86.082;2023-03-18T01:31:35;100816.88;;;-5.45;71.32
61010;BME280;46897;55.340;86.082;2023-03-18T01:34:04;100860.09;;;-5.10;71.87
61010;BME280;46897;55.340;86.082;2023-03-18T01:36:35;100872.34;;;-5.03;71.47
61010;BME280;46897;55.340;86.082;2023-03-18T01:39:04;100769.53;;;-5.47;71.23
61010;BME280;46897;55.340;86.082;2023-03-18T01:41:34;100853.13;;;-4.84;71.48
61010;BME280;46897;55.340;86.082;2023-03-18T01:44:09;100812.22;;;-4.99;71.17
61010;BME280;46897;55.340;86.082;2023-03-18T01:46:41;100863.25;;;-4.60;71.42
61010;BME280;46897;55.340;86.082;2023-03-18T01:49:14;100716.59;;;-5.34;71.28
61010;BME280;46897;55.340;86.082;2023-03-18T01:51:48;100853.59;;;-4.36;71.05
61010;BME280;46897;55.340;86.082;2023-03-18T01:54:18;100773.88;;;-4.85;70.80
61010;BME280;46897;55.340;86.082;2023-03-18T01:56:48;100854.25;;;-4.11;71.14
61010;BME280;46897;55.340;86.082;2023-03-18T01:59:20;100862.34;;;-3.97;71.10
61010;BME280;46897;55.340;86.082;2023-03-18T02:01:53;100727.31;;;-4.55;70.76
61010;BME280;46897;55.340;86.082;2023-03-18T02:04:27;100827.28;;;-3.86;70.70
61010;BME280;46897;55.340;86.082;2023-03-18T02:07:00;100725.94;;;-4.42;70.96
61010;BME280;46897;55.340;86.082;2023-03-18T02:09:29;100844.50;;;-3.50;70.73
61010;BME280;46897;55.340;86.082;2023-03-18T02:12:00;100848.22;;;-3.39;70.74
61010;BME280;46897;55.340;86.082;2023-03-18T02:14:30;100768.66;;;-3.85;70.62
61010;BME280;46897;55.340;86.082;2023-03-18T02:17:03;100790.31;;;-3.44;70.16
61010;BME280;46897;55.340;86.082;2023-03-18T02:19:48;100774.63;;;-3.50;70.22
61010;BME280;46897;55.340;86.082;2023-03-18T02:22:27;100794.25;;;-3.20;70.02
61010;BME280;46897;55.340;86.082;2023-03-18T02:25:10;100830.22;;;-2.93;70.03
61010;BME280;46897;55.340;86.082;2023-03-18T02:27:47;100722.06;;;-3.46;70.07
61010;BME280;46897;55.340;86.082;2023-03-18T02:30:22;100780.78;;;-3.04;69.80
61010;BME280;46897;55.340;86.082;2023-03-18T02:32:54;100782.38;;;-2.66;69.88
61010;BME280;46897;55.340;86.082;2023-03-18T02:35:26;100802.66;;;-2.45;70.03
61010;BME280;46897;55.340;86.082;2023-03-18T02:37:56;100826.53;;;-2.13;69.85
61010;BME280;46897;55.340;86.082;2023-03-18T02:40:36;100792.59;;;-2.27;70.00
61010;BME280;46897;55.340;86.082;2023-03-18T02:43:39;100797.31;;;-2.04;69.21
61010;BME280;46897;55.340;86.082;2023-03-18T02:46:50;100865.44;;;-1.63;69.43
61010;BME280;46897;55.340;86.082;2023-03-18T02:49:31;100844.03;;;-1.48;69.16
61010;BME280;46897;55.340;86.082;2023-03-18T02:52:08;100845.97;;;-1.34;69.17
61010;BME280;46897;55.340;86.082;2023-03-18T02:54:58;100860.03;;;-1.22;68.79
61010;BME280;46897;55.340;86.082;2023-03-18T02:57:30;100865.38;;;-1.09;68.73
61010;BME280;46897;55.340;86.082;2023-03-18T03:00:01;100835.22;;;-0.98;68.71
61010;BME280;46897;55.340;86.082;2023-03-18T03:02:32;100749.81;;;-1.38;68.46
61010;BME280;46897;55.340;86.082;2023-03-18T03:05:03;100826.78;;;-0.78;68.42
61010;BME280;46897;55.340;86.082;2023-03-18T03:07:33;100839.13;;;-0.61;68.18
61010;BME280;46897;55.340;86.082;2023-03-18T03:10:03;100841.88;;;-0.50;68.08
61010;BME280;46897;55.340;86.082;2023-03-18T03:12:33;100846.31;;;-0.38;67.80
61010;BME280;46897;55.340;86.082;2023-03-18T03:15:07;100842.94;;;-0.28;67.57
61010;BME280;46897;55.340;86.082;2023-03-18T03:17:36;100823.84;;;-0.30;67.75
61010;BME280;46897;55.340;86.082;2023-03-18T03:20:06;100825.69;;;-0.20;67.61
61010;BME280;46897;55.340;86.082;2023-03-18T03:22:36;100835.41;;;-0.02;67.41
61010;BME280;46897;55.340;86.082;2023-03-18T03:25:07;100822.38;;;-0.03;67.51
61010;BME280;46897;55.340;86.082;2023-03-18T03:27:36;100777.97;;;-0.22;66.80
61010;BME280;46897;55.340;86.082;2023-03-18T03:30:10;100830.41;;;0.22;67.03
61010;BME280;46897;55.340;86.082;2023-03-18T03:32:41;100831.34;;;0.31;66.87
61010;BME280;46897;55.340;86.082;2023-03-18T03:35:11;100826.19;;;0.41;66.56
61010;BME280;46897;55.340;86.082;2023-03-18T03:37:41;100824.56;;;0.50;66.58
61010;BME280;46897;55.340;86.082;2023-03-18T03:40:13;100809.81;;;0.57;66.42
61010;BME280;46897;55.340;86.082;2023-03-18T03:42:44;100812.50;;;0.66;66.39
61010;BME280;46897;55.340;86.082;2023-03-18T03:45:16;100819.50;;;0.81;66.07
61010;BME280;46897;55.340;86.082;2023-03-18T03:47:46;100824.78;;;0.93;66.10
61010;BME280;46897;55.340;86.082;2023-03-18T03:50:16;100799.63;;;0.97;65.71
61010;BME280;46897;55.340;86.082;2023-03-18T03:52:46;100809.25;;;1.10;65.54
61010;BME280;46897;55.340;86.082;2023-03-18T03:55:18;100817.09;;;1.23;65.77
61010;BME280;46897;55.340;86.082;2023-03-18T03:57:47;100811.03;;;1.27;65.64
61010;BME280;46897;55.340;86.082;2023-03-18T04:00:21;100812.81;;;1.38;65.23
61010;BME280;46897;55.340;86.082;2023-03-18T04:02:51;100816.28;;;1.47;65.09
61010;BME280;46897;55.340;86.082;2023-03-18T04:05:22;100818.94;;;1.53;64.82
61010;BME280;46897;55.340;86.082;2023-03-18T04:07:52;100811.13;;;1.59;64.78
61010;BME280;46897;55.340;86.082;2023-03-18T04:10:22;100798.06;;;1.62;64.87
61010;BME280;46897;55.340;86.082;2023-03-18T04:12:51;100805.94;;;1.76;64.68
61010;BME280;46897;55.340;86.082;2023-03-18T04:15:22;100798.97;;;1.80;64.34
61010;BME280;46897;55.340;86.082;2023-03-18T04:17:53;100799.84;;;1.86;64.03
61010;BME280;46897;55.340;86.082;2023-03-18T04:20:22;100765.91;;;1.75;64.13
61010;BME280;46897;55.340;86.082;2023-03-18T04:22:52;100791.16;;;2.06;64.12
61010;BME280;46897;55.340;86.082;2023-03-18T04:25:21;100796.38;;;2.13;63.79
61010;BME280;46897;55.340;86.082;2023-03-18T04:27:50;100774.63;;;2.08;63.78
61010;BME280;46897;55.340;86.082;2023-03-18T04:30:22;100790.31;;;2.22;63.64
61010;BME280;46897;55.340;86.082;2023-03-18T04:32:52;100794.63;;;2.32;63.63
61010;BME280;46897;55.340;86.082;2023-03-18T04:35:22;100792.88;;;2.42;63.53
61010;BME280;46897;55.340;86.082;2023-03-18T04:37:51;100774.56;;;2.45;63.77
61010;BME280;46897;55.340;86.082;2023-03-18T04:40:21;100785.91;;;2.53;63.13
61010;BME280;46897;55.340;86.082;2023-03-18T04:42:50;100779.78;;;2.58;62.91
61010;BME280;46897;55.340;86.082;2023-03-18T04:45:19;100783.25;;;2.58;62.95
61010;BME280;46897;55.340;86.082;2023-03-18T04:47:50;100767.59;;;2.60;62.83
61010;BME280;46897;55.340;86.082;2023-03-18T04:50:20;100745.78;;;2.61;62.92
61010;BME280;46897;55.340;86.082;2023-03-18T04:52:49;100764.09;;;2.67;62.39
61010;BME280;46897;55.340;86.082;2023-03-18T04:55:19;100759.69;;;2.73;62.34
61010;BME280;46897;55.340;86.082;2023-03-18T04:57:48;100760.56;;;2.79;62.29
61010;BME280;46897;55.340;86.082;2023-03-18T05:00:19;100746.59;;;2.78;62.28
61010;BME280;46897;55.340;86.082;2023-03-18T05:02:50;100751.81;;;2.87;61.98
61010;BME280;46897;55.340;86.082;2023-03-18T05:05:19;100750.06;;;2.89;62.04
61010;BME280;46897;55.340;86.082;2023-03-18T05:07:58;100688.31;;;2.59;61.95
61010;BME280;46897;55.340;86.082;2023-03-18T05:10:54;100732.59;;;2.98;62.02
61010;BME280;46897;55.340;86.082;2023-03-18T05:13:23;100728.19;;;3.06;62.14
61010;BME280;46897;55.340;86.082;2023-03-18T05:15:52;100730.78;;;3.12;61.65
61010;BME280;46897;55.340;86.082;2023-03-18T05:18:23;100722.94;;;3.12;61.44
61010;BME280;46897;55.340;86.082;2023-03-18T05:20:52;100687.25;;;2.99;61.48
61010;BME280;46897;55.340;86.082;2023-03-18T05:23:22;100710.66;;;3.22;61.61
61010;BME280;46897;55.340;86.082;2023-03-18T05:25:51;100719.31;;;3.31;61.32
61010;BME280;46897;55.340;86.082;2023-03-18T05:28:21;100718.41;;;3.39;61.68
61010;BME280;46897;55.340;86.082;2023-03-18T05:30:50;100700.16;;;3.32;61.07
61010;BME280;46897;55.340;86.082;2023-03-18T05:33:20;100706.13;;;3.48;61.14
61010;BME280;46897;55.340;86.082;2023-03-18T05:35:51;100715.66;;;3.59;61.17
61010;BME280;46897;55.340;86.082;2023-03-18T05:38:20;100699.94;;;3.57;61.30
61010;BME280;46897;55.340;86.082;2023-03-18T05:40:50;100711.19;;;3.71;61.14
61010;BME280;46897;55.340;86.082;2023-03-18T05:43:19;100705.06;;;3.77;61.35
61010;BME280;46897;55.340;86.082;2023-03-18T05:45:49;100701.47;;;3.86;61.22
61010;BME280;46897;55.340;86.082;2023-03-18T05:48:19;100693.59;;;3.89;61.30
61010;BME280;46897;55.340;86.082;2023-03-18T05:50:48;100696.16;;;3.97;60.65
61010;BME280;46897;55.340;86.082;2023-03-18T05:53:19;100696.09;;;4.01;60.91
61010;BME280;46897;55.340;86.082;2023-03-18T05:55:49;100685.63;;;4.01;60.63
61010;BME280;46897;55.340;86.082;2023-03-18T05:58:18;100693.38;;;4.10;60.89
61010;BME280;46897;55.340;86.082;2023-03-18T06:00:50;100683.69;;;4.19;60.56
61010;BME280;46897;55.340;86.082;2023-03-18T06:03:19;100573.38;;;3.64;60.32
61010;BME280;46897;55.340;86.082;2023-03-18T06:05:51;100673.97;;;4.30;60.38
61010;BME280;46897;55.340;86.082;2023-03-18T06:08:22;100660.03;;;4.25;60.21
61010;BME280;46897;55.340;86.082;2023-03-18T06:10:52;100671.28;;;4.36;59.89
61010;BME280;46897;55.340;86.082;2023-03-18T06:13:21;100669.56;;;4.35;60.31
61010;BME280;46897;55.340;86.082;2023-03-18T06:15:55;100666.03;;;4.34;59.56
61010;BME280;46897;55.340;86.082;2023-03-18T06:18:25;100645.28;;;4.18;59.70
61010;BME280;46897;55.340;86.082;2023-03-18T06:20:54;100650.38;;;4.33;59.68
61010;BME280;46897;55.340;86.082;2023-03-18T06:23:25;100592.22;;;4.00;59.74
61010;BME280;46897;55.340;86.082;2023-03-18T06:25:57;100631.13;;;4.34;59.75
61010;BME280;46897;55.340;86.082;2023-03-18T06:28:27;100612.06;;;4.21;59.29
61010;BME280;46897;55.340;86.082;2023-03-18T06:30:57;100587.81;;;4.04;59.54
61010;BME280;46897;55.340;86.082;2023-03-18T06:33:26;100647.50;;;4.51;59.63
61010;BME280;46897;55.340;86.082;2023-03-18T06:35:56;100653.56;;;4.60;59.33
61010;BME280;46897;55.340;86.082;2023-03-18T06:38:28;100612.75;;;4.37;59.47
61010;BME280;46897;55.340;86.082;2023-03-18T06:40:58;100644.78;;;4.59;59.42
61010;BME280;46897;55.340;86.082;2023-03-18T06:43:29;100638.59;;;4.65;59.24
61010;BME280;46897;55.340;86.082;2023-03-18T06:46:00;100579.72;;;4.24;59.25
61010;BME280;46897;55.340;86.082;2023-03-18T06:48:29;100617.75;;;4.56;58.96
61010;BME280;46897;55.340;86.082;2023-03-18T06:50:59;100635.03;;;4.72;59.25
61010;BME280;46897;55.340;86.082;2023-03-18T06:53:32;100530.88;;;4.17;58.83
61010;BME280;46897;55.340;86.082;2023-03-18T06:56:07;100429.53;;;3.53;59.11
61010;BME280;46897;55.340;86.082;2023-03-18T06:58:39;100414.72;;;3.51;59.00
61010;BME280;46897;55.340;86.082;2023-03-18T07:01:09;100516.00;;;4.20;59.06
61010;BME280;46897;55.340;86.082;2023-03-18T07:03:43;100613.88;;;4.84;58.55
61010;BME280;46897;55.340;86.082;2023-03-18T07:06:13;100606.91;;;4.83;58.74
61010;BME280;46897;55.340;86.082;2023-03-18T07:08:44;100619.00;;;4.93;58.39
61010;BME280;46897;55.340;86.082;2023-03-18T07:11:13;100616.28;;;4.98;58.70
61010;BME280;46897;55.340;86.082;2023-03-18T07:13:43;100579.84;;;4.80;58.59
61010;BME280;46897;55.340;86.082;2023-03-18T07:16:12;100604.09;;;4.94;58.09
61010;BME280;46897;55.340;86.082;2023-03-18T07:18:42;100610.16;;;4.99;58.59
61010;BME280;46897;55.340;86.082;2023-03-18T07:21:11;100605.75;;;5.03;58.60
61010;BME280;46897;55.340;86.082;2023-03-18T07:23:41;100597.78;;;5.09;58.42
61010;BME280;46897;55.340;86.082;2023-03-18T07:26:12;100555.28;;;4.85;58.40
61010;BME280;46897;55.340;86.082;2023-03-18T07:28:42;100548.19;;;4.90;58.19
61010;BME280;46897;55.340;86.082;2023-03-18T07:31:11;100576.75;;;5.12;58.09
61010;BME280;46897;55.340;86.082;2023-03-18T07:33:41;100566.31;;;5.06;57.95
61010;BME280;46897;55.340;86.082;2023-03-18T07:36:10;100570.47;;;5.21;58.35
61010;BME280;46897;55.340;86.082;2023-03-18T07:38:40;100562.53;;;5.25;58.40
61010;BME280;46897;55.340;86.082;2023-03-18T07:41:09;100551.09;;;5.28;58.29
61010;BME280;46897;55.340;86.082;2023-03-18T07:43:40;100568.38;;;5.43;58.35
61010;BME280;46897;55.340;86.082;2023-03-18T07:46:10;100537.13;;;5.27;57.90
61010;BME280;46897;55.340;86.082;2023-03-18T07:48:39;100563.88;;;5.48;58.05
61010;BME280;46897;55.340;86.082;2023-03-18T07:51:08;100547.38;;;5.43;58.16
61010;BME280;46897;55.340;86.082;2023-03-18T07:53:37;100540.19;;;5.53;58.15
61010;BME280;46897;55.340;86.082;2023-03-18T07:56:08;100525.44;;;5.44;57.91
61010;BME280;46897;55.340;86.082;2023-03-18T07:58:40;100527.00;;;5.54;57.45
61010;BME280;46897;55.340;86.082;2023-03-18T08:01:10;100521.00;;;5.49;57.53
61010;BME280;46897;55.340;86.082;2023-03-18T08:03:42;100535.63;;;5.62;57.88
61010;BME280;46897;55.340;86.082;2023-03-18T08:06:13;100527.78;;;5.59;57.47
61010;BME280;46897;55.340;86.082;2023-03-18T08:08:45;100524.22;;;5.63;57.71
61010;BME280;46897;55.340;86.082;2023-03-18T08:11:18;100526.78;;;5.66;57.52
61010;BME280;46897;55.340;86.082;2023-03-18T08:13:48;100530.19;;;5.71;56.66
61010;BME280;46897;55.340;86.082;2023-03-18T08:16:18;100522.31;;;5.71;57.30
61010;BME280;46897;55.340;86.082;2023-03-18T08:18:47;100522.22;;;5.78;56.84
61010;BME280;46897;55.340;86.082;2023-03-18T08:21:16;100522.13;;;5.81;57.11
61010;BME280;46897;55.340;86.082;2023-03-18T08:23:45;100512.47;;;5.81;57.33
61010;BME280;46897;55.340;86.082;2023-03-18T08:26:15;100504.41;;;5.90;57.32
61010;BME280;46897;55.340;86.082;2023-03-18T08:28:45;100512.16;;;6.00;57.13
61010;BME280;46897;55.340;86.082;2023-03-18T08:31:15;100516.28;;;6.12;57.17
61010;BME280;46897;55.340;86.082;2023-03-18T08:33:45;100508.28;;;6.18;56.97
61010;BME280;46897;55.340;86.082;2023-03-18T08:36:16;100506.53;;;6.18;56.88
61010;BME280;46897;55.340;86.082;2023-03-18T08:38:45;100502.81;;;6.27;56.50
61010;BME280;46897;55.340;86.082;2023-03-18T08:41:14;100502.75;;;6.69;56.03
61010;BME280;46897;55.340;86.082;2023-03-18T08:43:45;100501.16;;;7.34;55.85
61010;BME280;46897;55.340;86.082;2023-03-18T08:46:15;100494.00;;;8.03;55.21
61010;BME280;46897;55.340;86.082;2023-03-18T08:48:45;100468.03;;;8.49;55.34
61010;BME280;46897;55.340;86.082;2023-03-18T08:51:14;100469.75;;;8.78;55.44
61010;BME280;46897;55.340;86.082;2023-03-18T08:53:44;100477.88;;;8.72;55.48
61010;BME280;46897;55.340;86.082;2023-03-18T08:56:14;100463.78;;;8.44;55.91
61010;BME280;46897;55.340;86.082;2023-03-18T08:58:44;100455.75;;;8.48;56.06
61010;BME280;46897;55.340;86.082;2023-03-18T09:01:16;100471.03;;;8.93;55.79
61010;BME280;46897;55.340;86.082;2023-03-18T09:03:46;100466.88;;;9.37;55.41
61010;BME280;46897;55.340;86.082;2023-03-18T09:06:15;100460.59;;;9.65;55.13
61010;BME280;46897;55.340;86.082;2023-03-18T09:08:44;100461.13;;;9.75;54.78
61010;BME280;46897;55.340;86.082;2023-03-18T09:11:14;100450.44;;;9.78;54.84
61010;BME280;46897;55.340;86.082;2023-03-18T09:13:44;100436.72;;;9.92;54.56
61010;BME280;46897;55.340;86.082;2023-03-18T09:16:18;100453.50;;;10.14;54.34
61010;BME280;46897;55.340;86.082;2023-03-18T09:18:47;100448.81;;;10.21;54.73
61010;BME280;46897;55.340;86.082;2023-03-18T09:21:16;100438.81;;;10.06;54.77
61010;BME280;46897;55.340;86.082;2023-03-18T09:23:45;100432.09;;;9.73;55.04
61010;BME280;46897;55.340;86.082;2023-03-18T09:26:16;100431.50;;;9.41;54.75
61010;BME280;46897;55.340;86.082;2023-03-18T09:28:45;100422.09;;;9.08;55.09
61010;BME280;46897;55.340;86.082;2023-03-18T09:31:14;100376.53;;;8.77;55.00
61010;BME280;46897;55.340;86.082;2023-03-18T09:33:45;100421.84;;;9.15;54.90
61010;BME280;46897;55.340;86.082;2023-03-18T09:36:15;100421.22;;;9.57;54.34
61010;BME280;46897;55.340;86.082;2023-03-18T09:38:44;100408.50;;;10.38;53.24
61010;BME280;46897;55.340;86.082;2023-03-18T09:41:23;100410.78;;;11.10;51.45
61010;BME280;46897;55.340;86.082;2023-03-18T09:44:05;100401.44;;;11.82;50.98
61010;BME280;46897;55.340;86.082;2023-03-18T09:46:50;100405.34;;;12.30;50.02
61010;BME280;46897;55.340;86.082;2023-03-18T09:49:33;100383.56;;;12.60;49.90
61010;BME280;46897;55.340;86.082;2023-03-18T09:52:15;100372.97;;;12.95;49.88
61010;BME280;46897;55.340;86.082;2023-03-18T09:54:55;100386.09;;;13.15;49.78
61010;BME280;46897;55.340;86.082;2023-03-18T09:57:27;100385.84;;;13.20;49.98
61010;BME280;46897;55.340;86.082;2023-03-18T10:00:04;100360.13;;;13.54;49.78
61010;BME280;46897;55.340;86.082;2023-03-18T10:02:39;100376.06;;;14.51;49.21
61010;BME280;46897;55.340;86.082;2023-03-18T10:05:15;100374.53;;;15.22;49.66
61010;BME280;46897;55.340;86.082;2023-03-18T10:07:49;100376.19;;;15.82;49.12
61010;BME280;46897;55.340;86.082;2023-03-18T10:10:24;100370.72;;;16.12;48.87
61010;BME280;46897;55.340;86.082;2023-03-18T10:13:01;100366.53;;;16.35;48.80
61010;BME280;46897;55.340;86.082;2023-03-18T10:15:37;100359.03;;;16.27;48.57
61010;BME280;46897;55.340;86.082;2023-03-18T10:18:11;100356.63;;;16.37;48.37
61010;BME280;46897;55.340;86.082;2023-03-18T10:20:55;100333.03;;;16.44;47.64
61010;BME280;46897;55.340;86.082;2023-03-18T10:23:36;100346.41;;;16.57;47.39
61010;BME280;46897;55.340;86.082;2023-03-18T10:26:15;100343.38;;;16.76;47.63
61010;BME280;46897;55.340;86.082;2023-03-18T10:29:02;100330.56;;;16.81;47.16
61010;BME280;46897;55.340;86.082;2023-03-18T10:31:48;100338.94;;;17.15;46.81
61010;BME280;46897;55.340;86.082;2023-03-18T10:34:27;100329.00;;;17.29;47.15
61010;BME280;46897;55.340;86.082;2023-03-18T10:37:04;100325.69;;;17.26;46.87
61010;BME280;46897;55.340;86.082;2023-03-18T10:39:35;100317.00;;;16.44;47.71
61010;BME280;46897;55.340;86.082;2023-03-18T10:42:17;100331.16;;;15.34;48.13
61010;BME280;46897;55.340;86.082;2023-03-18T10:44:49;100325.19;;;15.00;48.56
61010;BME280;46897;55.340;86.082;2023-03-18T10:47:21;100317.63;;;15.23;48.30
61010;BME280;46897;55.340;86.082;2023-03-18T10:50:00;100317.59;;;15.80;46.74
61010;BME280;46897;55.340;86.082;2023-03-18T10:52:39;100292.94;;;16.04;46.03
61010;BME280;46897;55.340;86.082;2023-03-18T10:55:12;100304.97;;;15.97;46.22
61010;BME280;46897;55.340;86.082;2023-03-18T10:57:43;100296.25;;;15.37;46.53
61010;BME280;46897;55.340;86.082;2023-03-18T11:00:25;100280.91;;;14.69;46.60
61010;BME280;46897;55.340;86.082;2023-03-18T11:02:56;100292.09;;;14.13;47.09
61010;BME280;46897;55.340;86.082;2023-03-18T11:05:28;100299.44;;;13.62;47.50
61010;BME280;46897;55.340;86.082;2023-03-18T11:08:03;100295.31;;;13.23;47.80
61010;BME280;46897;55.340;86.082;2023-03-18T11:10:34;100293.66;;;12.87;47.97
61010;BME280;46897;55.340;86.082;2023-03-18T11:13:03;100290.97;;;12.36;48.35
61010;BME280;46897;55.340;86.082;2023-03-18T11:15:36;100258.38;;;11.60;48.54
61010;BME280;46897;55.340;86.082;2023-03-18T11:18:13;100292.34;;;11.33;48.91
61010;BME280;46897;55.340;86.082;2023-03-18T11:20:55;100272.16;;;10.91;49.10
61010;BME280;46897;55.340;86.082;2023-03-18T11:23:33;100247.94;;;10.79;49.18
61010;BME280;46897;55.340;86.082;2023-03-18T11:26:23;100271.41;;;10.87;48.94
61010;BME280;46897;55.340;86.082;2023-03-18T11:28:54;100273.97;;;10.49;49.17
61010;BME280;46897;55.340;86.082;2023-03-18T11:31:27;100204.53;;;9.57;49.47
61010;BME280;46897;55.340;86.082;2023-03-18T11:34:07;100276.84;;;9.56;49.81
61010;BME280;46897;55.340;86.082;2023-03-18T11:36:36;100264.78;;;9.25;50.14
61010;BME280;46897;55.340;86.082;2023-03-18T11:39:12;100277.91;;;9.03;50.41
61010;BME280;46897;55.340;86.082;2023-03-18T11:41:43;100259.19;;;8.86;50.63
61010;BME280;46897;55.340;86.082;2023-03-18T11:44:15;100270.25;;;8.72;50.84
61010;BME280;46897;55.340;86.082;2023-03-18T11:46:49;100262.06;;;8.28;50.70
61010;BME280;46897;55.340;86.082;2023-03-18T11:49:21;100259.03;;;7.87;51.27
61010;BME280;46897;55.340;86.082;2023-03-18T11:51:53;100258.97;;;7.60;51.54
61010;BME280;46897;55.340;86.082;2023-03-18T11:54:43;100220.34;;;7.33;51.29
61010;BME280;46897;55.340;86.082;2023-03-18T11:57:21;100257.75;;;7.44;51.61
61010;BME280;46897;55.340;86.082;2023-03-18T12:00:09;100226.75;;;7.52;51.20
61010;BME280;46897;55.340;86.082;2023-03-18T12:03:21;100244.41;;;7.48;51.33
61010;BME280;46897;55.340;86.082;2023-03-18T12:06:02;100209.97;;;6.97;51.31
61010;BME280;46897;55.340;86.082;2023-03-18T12:08:46;100225.09;;;6.59;51.93
61010;BME280;46897;55.340;86.082;2023-03-18T12:11:25;100219.16;;;6.18;52.47
61010;BME280;46897;55.340;86.082;2023-03-18T12:14:03;100208.06;;;5.70;52.68
61010;BME280;46897;55.340;86.082;2023-03-18T12:16:47;100228.81;;;5.44;53.45
61010;BME280;46897;55.340;86.082;2023-03-18T12:19:40;100212.19;;;5.04;53.85
61010;BME280;46897;55.340;86.082;2023-03-18T12:22:31;100225.00;;;4.76;53.73
61010;BME280;46897;55.340;86.082;2023-03-18T12:25:22;100225.41;;;4.55;54.76
61010;BME280;46897;55.340;86.082;2023-03-18T12:28:02;100230.97;;;4.38;54.70
61010;BME280;46897;55.340;86.082;2023-03-18T12:30:52;100214.81;;;4.14;55.22
61010;BME280;46897;55.340;86.082;2023-03-18T12:33:47;100216.88;;;3.95;55.48
61010;BME280;46897;55.340;86.082;2023-03-18T12:36:30;100227.50;;;3.86;55.39
61010;BME280;46897;55.340;86.082;2023-03-18T12:42:08;100218.34;;;3.57;56.02
61010;BME280;46897;55.340;86.082;2023-03-18T12:45:00;100223.78;;;3.43;56.03
61010;BME280;46897;55.340;86.082;2023-03-18T12:47:35;100208.41;;;3.22;56.26
61010;BME280;46897;55.340;86.082;2023-03-18T12:50:14;100217.19;;;3.14;56.68
61010;BME280;46897;55.340;86.082;2023-03-18T12:52:46;100194.88;;;2.92;56.58
61010;BME280;46897;55.340;86.082;2023-03-18T12:55:19;100208.78;;;2.94;56.59
61010;BME280;46897;55.340;86.082;2023-03-18T12:57:52;100201.06;;;2.83;56.40
61010;BME280;46897;55.340;86.082;2023-03-18T13:00:29;100204.69;;;2.73;57.01
61010;BME280;46897;55.340;86.082;2023-03-18T13:03:03;100201.31;;;2.65;56.73
61010;BME280;46897;55.340;86.082;2023-03-18T13:05:43;100172.75;;;2.45;57.16
61010;BME280;46897;55.340;86.082;2023-03-18T13:11:28;100182.38;;;2.41;56.88
61010;BME280;46897;55.340;86.082;2023-03-18T13:13:59;100181.59;;;2.34;57.32
61010;BME280;46897;55.340;86.082;2023-03-18T13:16:33;100178.16;;;2.28;56.92
61010;BME280;46897;55.340;86.082;2023-03-18T13:19:04;100177.41;;;2.20;57.31
61010;BME280;46897;55.340;86.082;2023-03-18T13:21:37;100178.31;;;2.15;57.28